createdAt,value
2022-09-09T00:02:43.382Z,11.85
2022-09-09T00:06:30.622Z,15.23
2022-09-09T00:09:39.488Z,14.05
2022-09-09T00:13:04.531Z,17.50
2022-09-09T00:16:27.231Z,11.78
2022-09-09T00:19:50.709Z,13.78
2022-09-09T00:23:00.429Z,17.60
2022-09-09T00:26:26.575Z,11.40
2022-09-09T00:29:51.529Z,12.78
2022-09-09T00:32:57.108Z,12.68
2022-09-09T00:36:16.061Z,17.73
2022-09-09T00:39:24.606Z,11.65
2022-09-09T00:42:44.329Z,12.88
2022-09-09T00:46:18.727Z,18.67
2022-09-09T00:49:59.306Z,15.32
2022-09-09T00:53:30.609Z,11.40
2022-09-09T00:56:38.810Z,22.32
2022-09-09T01:00:11.422Z,17.52
2022-09-09T01:03:53.764Z,14.20
2022-09-09T01:07:00.199Z,11.90
2022-09-09T01:10:18.248Z,16.45
2022-09-09T01:13:29.043Z,14.60
2022-09-09T01:16:37.667Z,12.00
2022-09-09T01:20:21.173Z,12.43
2022-09-09T01:23:54.754Z,16.15
2022-09-09T01:27:07.392Z,16.70
2022-09-09T01:30:13.202Z,13.05
2022-09-09T01:33:18.983Z,13.65
2022-09-09T01:36:37.727Z,11.12
2022-09-09T01:39:43.537Z,8.33
2022-09-09T01:42:49.913Z,16.57
2022-09-09T01:45:55.828Z,12.68
2022-09-09T01:49:02.845Z,12.18
2022-09-09T01:52:11.668Z,9.50
2022-09-09T01:55:18.100Z,11.10
2022-09-09T01:58:52.168Z,13.90
2022-09-09T02:02:21.363Z,15.70
2022-09-09T02:05:53.258Z,10.55
2022-09-09T02:09:04.923Z,18.57
2022-09-09T02:12:28.309Z,15.30
2022-09-09T02:15:53.103Z,14.20
2022-09-09T02:19:06.736Z,15.15
2022-09-09T02:22:15.522Z,14.93
2022-09-09T02:25:24.063Z,12.10
2022-09-09T02:28:31.827Z,17.35
2022-09-09T02:31:38.847Z,12.58
2022-09-09T02:34:47.903Z,15.90
2022-09-09T02:37:55.527Z,14.47
2022-09-09T02:41:01.313Z,15.32
2022-09-09T02:44:00.242Z,12.55
2022-09-09T02:47:23.227Z,14.90
2022-09-09T02:50:35.998Z,14.50
2022-09-09T02:53:46.679Z,11.33
2022-09-09T02:56:58.309Z,14.20
2022-09-09T03:00:06.769Z,11.73
2022-09-09T03:03:12.331Z,13.55
2022-09-09T03:06:21.135Z,13.38
2022-09-09T03:09:27.919Z,14.20
2022-09-09T03:12:34.328Z,12.60
2022-09-09T03:15:40.753Z,15.20
2022-09-09T03:18:47.610Z,12.45
2022-09-09T03:21:53.297Z,10.50
2022-09-09T03:25:02.016Z,14.95
2022-09-09T03:28:01.889Z,15.03
2022-09-09T03:31:08.258Z,14.70
2022-09-09T03:34:14.673Z,16.27
2022-09-09T03:37:19.723Z,10.58
2022-09-09T03:40:20.638Z,11.88
2022-09-09T03:46:37.553Z,14.95
2022-09-09T03:49:44.122Z,24.52
2022-09-09T03:52:56.491Z,44.73
2022-09-09T03:56:07.802Z,44.00
2022-09-09T03:59:13.785Z,45.45
2022-09-09T04:02:19.453Z,33.38
2022-09-09T04:05:25.961Z,29.98
2022-09-09T04:08:33.436Z,59.53
2022-09-09T04:11:33.683Z,29.12
2022-09-09T04:14:40.953Z,22.50
2022-09-09T04:17:47.130Z,38.28
2022-09-09T04:20:53.187Z,31.80
2022-09-09T04:23:59.321Z,26.25
2022-09-09T04:27:05.441Z,25.00
2022-09-09T04:30:11.912Z,18.25
2022-09-09T04:33:17.947Z,19.98
2022-09-09T04:36:24.025Z,28.92
2022-09-09T04:39:31.270Z,27.25
2022-09-09T04:42:37.896Z,28.35
2022-09-09T04:45:45.581Z,21.93
2022-09-09T04:48:54.334Z,29.27
2022-09-09T04:52:02.333Z,22.52
2022-09-09T04:55:09.652Z,24.67
2022-09-09T04:58:21.701Z,21.35
2022-09-09T05:01:36.311Z,18.52
2022-09-09T05:04:44.190Z,18.45
2022-09-09T05:07:49.789Z,19.75
2022-09-09T05:10:58.257Z,22.07
2022-09-09T05:14:06.086Z,16.25
2022-09-09T05:17:11.855Z,14.00
2022-09-09T05:20:18.550Z,11.65
2022-09-09T05:23:26.264Z,17.23
2022-09-09T05:26:28.021Z,14.60
2022-09-09T05:29:20.948Z,11.43
2022-09-09T05:32:27.384Z,16.97
2022-09-09T05:35:33.108Z,13.60
2022-09-09T05:38:40.938Z,10.23
2022-09-09T05:41:46.195Z,16.70
2022-09-09T05:44:50.619Z,5.67
2022-09-09T05:47:40.216Z,7.08
2022-09-09T05:50:32.850Z,11.55
2022-09-09T05:53:18.739Z,10.20
2022-09-09T05:56:18.622Z,8.55
2022-09-09T05:59:14.103Z,8.75
2022-09-09T06:02:21.344Z,10.00
2022-09-09T06:05:30.595Z,13.98
2022-09-09T06:08:35.953Z,8.60
2022-09-09T06:11:44.845Z,10.20
2022-09-09T06:14:51.780Z,10.43
2022-09-09T06:18:01.271Z,8.55
2022-09-09T06:24:47.746Z,9.05
2022-09-09T06:27:56.763Z,6.30
2022-09-09T06:31:05.417Z,5.70
2022-09-09T06:34:14.095Z,5.55
2022-09-09T06:37:24.460Z,5.40
2022-09-09T06:40:32.968Z,7.72
2022-09-09T06:43:43.122Z,16.62
2022-09-09T06:46:48.131Z,10.08
2022-09-09T06:49:53.042Z,10.88
2022-09-09T06:53:02.560Z,5.55
2022-09-09T06:56:11.324Z,4.97
2022-09-09T06:59:20.676Z,7.55
2022-09-09T07:02:27.650Z,6.30
2022-09-09T07:05:34.015Z,8.88
2022-09-09T07:08:40.918Z,10.25
2022-09-09T07:11:51.539Z,5.25
2022-09-09T07:14:58.666Z,8.50
2022-09-09T07:18:08.750Z,10.98
2022-09-09T07:21:15.938Z,5.80
2022-09-09T07:24:24.267Z,7.83
2022-09-09T07:27:33.504Z,5.00
2022-09-09T07:30:46.210Z,11.22
2022-09-09T07:33:55.859Z,9.93
2022-09-09T07:36:57.787Z,5.70
2022-09-09T07:39:44.524Z,7.55
2022-09-09T07:42:36.680Z,7.58
2022-09-09T07:45:43.448Z,6.47
2022-09-09T07:48:48.979Z,6.28
2022-09-09T07:52:01.933Z,10.35
2022-09-09T07:55:11.478Z,6.97
2022-09-09T07:58:17.228Z,7.35
2022-09-09T08:01:28.197Z,11.03
2022-09-09T08:04:29.204Z,8.18
2022-09-09T08:07:36.828Z,7.10
2022-09-09T08:10:43.348Z,10.13
2022-09-09T08:13:53.983Z,5.37
2022-09-09T08:17:05.259Z,5.70
2022-09-09T08:20:13.329Z,8.18
2022-09-09T08:23:19.565Z,5.72
2022-09-09T08:26:33.057Z,13.13
2022-09-09T08:29:38.177Z,11.25
2022-09-09T08:32:45.947Z,8.95
2022-09-09T08:35:51.510Z,16.65
2022-09-09T08:38:59.416Z,6.90
2022-09-09T08:42:54.477Z,9.63
2022-09-09T08:46:33.582Z,7.55
2022-09-09T08:50:06.332Z,10.58
2022-09-09T08:53:24.684Z,11.20
2022-09-09T08:56:37.773Z,12.53
2022-09-09T08:59:47.130Z,13.78
2022-09-09T09:03:31.954Z,10.60
2022-09-09T09:07:09.099Z,5.90
2022-09-09T09:10:42.237Z,9.30
2022-09-09T09:17:17.468Z,11.63
2022-09-09T09:20:30.358Z,11.20
2022-09-09T09:23:41.387Z,5.75
2022-09-09T09:26:49.565Z,11.38
2022-09-09T09:30:23.870Z,8.45
2022-09-09T09:33:15.178Z,16.73
2022-09-09T09:36:23.056Z,11.07
2022-09-09T09:43:16.494Z,11.18
2022-09-09T09:46:30.861Z,10.20
2022-09-09T09:49:37.704Z,11.00
2022-09-09T09:52:44.878Z,7.37
2022-09-09T09:55:49.928Z,11.20
2022-09-09T09:59:13.310Z,8.40
2022-09-09T10:02:37.381Z,11.53
2022-09-09T10:05:46.695Z,6.78
2022-09-09T10:08:57.144Z,5.78
2022-09-09T10:12:23.334Z,24.67
2022-09-09T10:15:31.480Z,12.03
2022-09-09T10:18:56.047Z,11.50
2022-09-09T10:22:11.259Z,7.62
2022-09-09T10:25:40.910Z,10.55
2022-09-09T10:29:07.800Z,11.93
2022-09-09T10:33:01.108Z,8.43
2022-09-09T10:36:19.296Z,10.18
2022-09-09T10:39:49.182Z,6.83
2022-09-09T10:42:54.985Z,10.35
2022-09-09T10:46:06.477Z,16.02
2022-09-09T10:49:31.649Z,9.58
2022-09-09T10:53:06.962Z,8.93
2022-09-09T10:56:16.557Z,8.73
2022-09-09T10:59:25.302Z,7.58
2022-09-09T11:02:23.656Z,10.88
2022-09-09T11:05:41.328Z,9.85
2022-09-09T11:08:36.669Z,4.80
2022-09-09T11:11:47.226Z,6.33
2022-09-09T11:15:18.885Z,10.70
2022-09-09T11:18:37.330Z,11.53
2022-09-09T11:21:49.712Z,11.35
2022-09-09T11:25:02.596Z,6.85
2022-09-09T11:28:37.256Z,15.88
2022-09-09T11:31:55.423Z,8.75
2022-09-09T11:35:09.886Z,9.78
2022-09-09T11:38:40.571Z,8.50
2022-09-09T11:41:53.133Z,8.63
2022-09-09T11:45:03.001Z,9.83
2022-09-09T11:48:10.674Z,12.00
2022-09-09T11:51:26.006Z,9.83
2022-09-09T11:54:49.391Z,13.03
2022-09-09T11:57:55.291Z,10.63
2022-09-09T12:01:02.829Z,18.23
2022-09-09T12:04:28.066Z,10.28
2022-09-09T12:07:53.015Z,12.65
2022-09-09T12:11:03.189Z,13.43
2022-09-09T12:14:11.491Z,7.03
2022-09-09T12:17:38.180Z,14.15
2022-09-09T12:20:54.570Z,24.65
2022-09-09T12:24:10.225Z,14.98
2022-09-09T12:27:40.503Z,15.18
2022-09-09T12:30:56.068Z,7.50
2022-09-09T12:34:01.688Z,15.95
2022-09-09T12:37:11.414Z,9.50
2022-09-09T12:40:20.798Z,10.58
2022-09-09T12:43:37.205Z,9.70
2022-09-09T12:46:54.549Z,14.33
2022-09-09T12:49:59.007Z,5.40
2022-09-09T12:53:06.474Z,8.03
2022-09-09T12:56:24.094Z,7.05
2022-09-09T12:59:41.626Z,7.30
2022-09-09T13:02:48.172Z,15.30
2022-09-09T13:05:54.218Z,9.78
2022-09-09T13:08:59.555Z,8.95
2022-09-09T13:12:08.485Z,6.65
2022-09-09T13:15:15.178Z,9.00
2022-09-09T13:18:24.815Z,6.12
2022-09-09T13:21:30.934Z,12.43
2022-09-09T13:24:51.591Z,12.37
2022-09-09T13:28:00.361Z,10.95
2022-09-09T13:31:23.926Z,8.68
2022-09-09T13:34:43.047Z,7.00
2022-09-09T13:37:53.684Z,8.78
2022-09-09T13:41:14.937Z,11.57
2022-09-09T13:44:21.356Z,5.72
2022-09-09T13:47:34.910Z,7.37
2022-09-09T13:50:44.792Z,9.65
2022-09-09T13:53:49.881Z,8.10
2022-09-09T13:56:57.869Z,9.08
2022-09-09T14:00:05.476Z,12.03
2022-09-09T14:03:10.717Z,11.43
2022-09-09T14:06:09.231Z,8.90
2022-09-09T14:09:14.546Z,13.93
2022-09-09T14:12:19.508Z,7.10
2022-09-09T14:15:28.244Z,10.00
2022-09-09T14:18:33.782Z,13.43
2022-09-09T14:21:40.561Z,12.18
2022-09-09T14:24:45.267Z,6.05
2022-09-09T14:27:50.735Z,6.33
2022-09-09T14:30:56.574Z,7.20
2022-09-09T14:34:02.829Z,10.58
2022-09-09T14:37:03.061Z,6.65
2022-09-09T14:40:08.449Z,11.22
2022-09-09T14:43:14.674Z,6.28
2022-09-09T14:46:26.445Z,8.75
2022-09-09T14:49:32.166Z,9.63
2022-09-09T14:52:37.247Z,4.90
2022-09-09T14:55:42.966Z,9.85
2022-09-09T14:58:48.676Z,9.88
2022-09-09T15:01:54.024Z,7.87
2022-09-09T15:05:00.163Z,4.70
2022-09-09T15:08:06.719Z,7.53
2022-09-09T15:11:18.575Z,11.08
2022-09-09T15:14:26.017Z,9.70
2022-09-09T15:17:33.263Z,8.78
2022-09-09T15:20:40.391Z,17.55
2022-09-09T15:23:47.428Z,9.33
2022-09-09T15:26:53.638Z,14.60
2022-09-09T15:29:59.579Z,6.50
2022-09-09T15:33:09.640Z,9.08
2022-09-09T15:36:13.278Z,8.68
2022-09-09T15:39:23.262Z,11.78
2022-09-09T15:42:28.858Z,11.55
2022-09-09T15:45:34.916Z,8.83
2022-09-09T15:48:47.315Z,12.25
2022-09-09T15:51:54.485Z,10.23
2022-09-09T15:54:59.923Z,11.85
2022-09-09T15:58:05.768Z,14.58
2022-09-09T16:01:12.752Z,13.62
2022-09-09T16:04:18.101Z,8.90
2022-09-09T16:07:23.993Z,10.80
2022-09-09T16:10:30.318Z,11.22
2022-09-09T16:13:36.614Z,13.68
2022-09-09T16:16:43.301Z,12.18
2022-09-09T16:19:48.788Z,8.73
2022-09-09T16:22:53.832Z,9.20
2022-09-09T16:26:05.551Z,8.00
2022-09-09T16:29:07.869Z,10.90
2022-09-09T16:32:14.089Z,10.70
2022-09-09T16:35:20.474Z,7.08
2022-09-09T16:38:25.761Z,6.75
2022-09-09T16:41:31.520Z,8.98
2022-09-09T16:44:37.929Z,8.48
2022-09-09T16:47:44.423Z,10.05
2022-09-09T16:50:49.799Z,8.28
2022-09-09T16:53:55.404Z,8.88
2022-09-09T16:57:03.817Z,9.35
2022-09-09T17:00:08.899Z,6.55
2022-09-09T17:03:13.961Z,7.42
2022-09-09T17:06:24.975Z,10.72
2022-09-09T17:09:31.761Z,18.23
2022-09-09T17:12:42.006Z,8.68
2022-09-09T17:15:45.022Z,7.08
2022-09-09T17:18:51.539Z,7.10
2022-09-09T17:22:16.292Z,8.18
2022-09-09T17:25:05.475Z,4.95
2022-09-09T17:28:12.522Z,7.55
2022-09-09T17:31:19.594Z,12.33
2022-09-09T17:34:25.769Z,7.55
2022-09-09T17:37:31.078Z,7.50
2022-09-09T17:40:36.588Z,8.00
2022-09-09T17:43:35.194Z,9.10
2022-09-09T17:46:45.077Z,8.05
2022-09-09T17:49:50.144Z,11.73
2022-09-09T17:52:56.811Z,8.85
2022-09-09T17:56:03.874Z,10.45
2022-09-09T17:59:10.830Z,6.67
2022-09-09T18:02:17.218Z,7.72
2022-09-09T18:05:23.688Z,11.75
2022-09-09T18:08:33.504Z,13.48
2022-09-09T18:11:40.069Z,11.53
2022-09-09T18:14:46.826Z,7.25
2022-09-09T18:17:52.061Z,10.72
2022-09-09T18:21:00.433Z,7.05
2022-09-09T18:24:05.508Z,9.73
2022-09-09T18:27:12.050Z,7.80
2022-09-09T18:30:18.317Z,6.30
2022-09-09T18:33:17.152Z,6.87
2022-09-09T18:36:25.496Z,5.00
2022-09-09T18:39:31.680Z,8.73
2022-09-09T18:42:37.294Z,7.83
2022-09-09T18:45:43.153Z,6.90
2022-09-09T18:48:50.817Z,9.25
2022-09-09T18:51:59.417Z,11.97
2022-09-09T18:55:04.922Z,5.35
2022-09-09T18:58:12.028Z,7.15
2022-09-09T19:01:18.114Z,7.33
2022-09-09T19:04:26.305Z,9.30
2022-09-09T19:07:32.397Z,14.58
2022-09-09T19:10:40.992Z,4.83
2022-09-09T19:13:47.344Z,4.83
2022-09-09T19:16:54.951Z,4.45
2022-09-09T19:20:02.511Z,4.35
2022-09-09T19:23:07.524Z,4.33
2022-09-09T19:26:15.548Z,5.17
2022-09-09T19:29:23.251Z,6.17
2022-09-09T19:32:52.137Z,4.25
2022-09-09T19:35:35.801Z,5.67
2022-09-09T19:38:42.376Z,3.83
2022-09-09T19:41:48.520Z,7.15
2022-09-09T19:44:53.103Z,4.30
2022-09-09T19:47:58.866Z,6.03
2022-09-09T19:51:04.382Z,9.90
2022-09-09T19:54:05.594Z,7.10
2022-09-09T19:57:04.537Z,4.80
2022-09-09T20:00:10.680Z,3.60
2022-09-09T20:03:19.665Z,3.85
2022-09-09T20:06:24.341Z,5.70
2022-09-09T20:09:34.027Z,5.45
2022-09-09T20:12:39.863Z,4.50
2022-09-09T20:15:45.219Z,4.42
2022-09-09T20:18:54.124Z,3.65
2022-09-09T20:22:01.102Z,2.05
2022-09-09T20:25:08.174Z,3.45
2022-09-09T20:28:13.328Z,4.53
2022-09-09T20:31:29.009Z,4.58
2022-09-09T20:34:36.485Z,3.87
2022-09-09T20:37:41.420Z,5.30
2022-09-09T20:40:49.110Z,3.22
2022-09-09T20:43:56.440Z,4.53
2022-09-09T20:47:05.154Z,5.90
2022-09-09T20:50:09.956Z,4.67
2022-09-09T20:55:49.053Z,6.72
2022-09-09T20:58:54.838Z,2.35
2022-09-09T21:02:01.236Z,4.03
2022-09-09T21:05:07.781Z,4.50
2022-09-09T21:08:16.558Z,4.83
2022-09-09T21:11:24.249Z,4.03
2022-09-09T21:14:29.894Z,5.30
2022-09-09T21:17:36.039Z,3.90
2022-09-09T21:20:42.977Z,2.22
2022-09-09T21:23:48.653Z,2.12
2022-09-09T21:26:49.853Z,2.20
2022-09-09T21:29:56.470Z,3.10
2022-09-09T21:33:02.800Z,3.47
2022-09-09T21:36:07.917Z,2.42
2022-09-09T21:39:13.584Z,2.37
2022-09-09T21:42:21.396Z,4.45
2022-09-09T21:45:26.968Z,3.95
2022-09-09T21:48:34.591Z,4.15
2022-09-09T21:51:40.337Z,3.55
2022-09-09T21:54:48.335Z,2.60
2022-09-09T21:57:54.798Z,5.45
2022-09-09T22:01:01.681Z,5.85
2022-09-09T22:04:06.922Z,3.58
2022-09-09T22:07:13.541Z,4.72
2022-09-09T22:10:20.174Z,2.87
2022-09-09T22:13:26.562Z,4.47
2022-09-09T22:16:34.264Z,3.45
2022-09-09T22:19:41.534Z,4.83
2022-09-09T22:22:46.382Z,5.55
2022-09-09T22:25:53.627Z,4.83
2022-09-09T22:29:00.907Z,4.87
2022-09-09T22:32:05.894Z,5.90
2022-09-09T22:35:10.318Z,3.58
2022-09-09T22:38:15.726Z,8.75
2022-09-09T22:41:14.653Z,3.42
2022-09-09T22:44:00.791Z,3.98
2022-09-09T22:46:53.630Z,3.92
2022-09-09T22:49:52.824Z,7.50
2022-09-09T22:52:59.033Z,4.95
2022-09-09T22:56:14.463Z,6.92
2022-09-09T22:59:20.016Z,7.40
2022-09-09T23:02:27.372Z,6.05
2022-09-09T23:05:36.161Z,8.18
2022-09-09T23:08:48.134Z,6.83
2022-09-09T23:11:55.104Z,5.80
2022-09-09T23:15:04.075Z,6.67
2022-09-09T23:18:03.656Z,4.35
2022-09-09T23:20:56.837Z,3.92
2022-09-09T23:24:02.513Z,5.12
2022-09-09T23:27:07.974Z,4.75
2022-09-09T23:30:14.411Z,5.47
2022-09-09T23:33:19.550Z,6.28
2022-09-09T23:36:27.357Z,5.87
2022-09-09T23:39:32.504Z,3.75
2022-09-09T23:42:40.151Z,10.08
2022-09-09T23:45:45.505Z,5.22
2022-09-09T23:48:51.308Z,8.90
2022-09-09T23:51:57.211Z,6.10
2022-09-09T23:54:57.750Z,5.97
